sensor_id;sensor_type;location;lat;lon;timestamp;temperature;humidity
25716;DHT22;13573;50.936;4.328;2022-08-21T00:01:12;17.40;99.90
25716;DHT22;13573;50.936;4.328;2022-08-21T00:03:40;18.00;99.90
25716;DHT22;13573;50.936;4.328;2022-08-21T00:06:06;17.00;99.90
25716;DHT22;13573;50.936;4.328;2022-08-21T00:08:33;17.20;99.90
25716;DHT22;13573;50.936;4.328;2022-08-21T00:11:02;17.20;99.90
25716;DHT22;13573;50.936;4.328;2022-08-21T00:13:29;17.00;99.90
25716;DHT22;13573;50.936;4.328;2022-08-21T00:15:57;16.90;99.90
25716;DHT22;13573;50.936;4.328;2022-08-21T00:18:25;16.90;99.90
25716;DHT22;13573;50.936;4.328;2022-08-21T00:20:52;17.10;99.90
25716;DHT22;13573;50.936;4.328;2022-08-21T00:23:18;17.00;99.90
25716;DHT22;13573;50.936;4.328;2022-08-21T00:25:45;16.90;99.90
25716;DHT22;13573;50.936;4.328;2022-08-21T00:28:13;17.00;99.90
25716;DHT22;13573;50.936;4.328;2022-08-21T00:30:41;16.80;99.90
25716;DHT22;13573;50.936;4.328;2022-08-21T00:33:10;16.80;99.90
25716;DHT22;13573;50.936;4.328;2022-08-21T00:35:41;16.40;99.90
25716;DHT22;13573;50.936;4.328;2022-08-21T00:38:09;16.40;99.90
25716;DHT22;13573;50.936;4.328;2022-08-21T00:40:49;16.70;99.90
25716;DHT22;13573;50.936;4.328;2022-08-21T00:43:20;16.40;99.90
25716;DHT22;13573;50.936;4.328;2022-08-21T00:45:46;16.80;99.90
25716;DHT22;13573;50.936;4.328;2022-08-21T00:48:13;16.40;99.90
25716;DHT22;13573;50.936;4.328;2022-08-21T00:50:45;16.30;99.90
25716;DHT22;13573;50.936;4.328;2022-08-21T00:53:13;16.20;99.90
25716;DHT22;13573;50.936;4.328;2022-08-21T00:55:40;16.30;99.90
25716;DHT22;13573;50.936;4.328;2022-08-21T00:58:09;16.60;99.90
25716;DHT22;13573;50.936;4.328;2022-08-21T01:00:39;16.30;99.90
25716;DHT22;13573;50.936;4.328;2022-08-21T01:03:10;15.30;99.90
25716;DHT22;13573;50.936;4.328;2022-08-21T01:05:37;16.50;99.90
25716;DHT22;13573;50.936;4.328;2022-08-21T01:08:06;16.00;99.90
25716;DHT22;13573;50.936;4.328;2022-08-21T01:10:34;16.10;99.90
25716;DHT22;13573;50.936;4.328;2022-08-21T01:13:03;16.00;99.90
25716;DHT22;13573;50.936;4.328;2022-08-21T01:15:34;15.90;99.90
25716;DHT22;13573;50.936;4.328;2022-08-21T01:18:03;15.70;99.90
25716;DHT22;13573;50.936;4.328;2022-08-21T01:20:31;15.80;99.90
25716;DHT22;13573;50.936;4.328;2022-08-21T01:23:00;15.50;99.90
25716;DHT22;13573;50.936;4.328;2022-08-21T01:25:27;16.00;99.90
25716;DHT22;13573;50.936;4.328;2022-08-21T01:27:54;15.90;99.90
25716;DHT22;13573;50.936;4.328;2022-08-21T01:30:24;15.80;99.90
25716;DHT22;13573;50.936;4.328;2022-08-21T01:35:20;16.00;99.90
25716;DHT22;13573;50.936;4.328;2022-08-21T01:37:48;15.80;99.90
25716;DHT22;13573;50.936;4.328;2022-08-21T01:40:15;15.50;99.90
25716;DHT22;13573;50.936;4.328;2022-08-21T01:42:44;16.10;99.90
25716;DHT22;13573;50.936;4.328;2022-08-21T01:45:12;15.70;99.90
25716;DHT22;13573;50.936;4.328;2022-08-21T01:47:39;15.70;99.90
25716;DHT22;13573;50.936;4.328;2022-08-21T01:50:10;14.80;99.90
25716;DHT22;13573;50.936;4.328;2022-08-21T01:52:36;15.50;99.90
25716;DHT22;13573;50.936;4.328;2022-08-21T01:55:05;15.50;99.90
25716;DHT22;13573;50.936;4.328;2022-08-21T01:57:33;15.70;99.90
25716;DHT22;13573;50.936;4.328;2022-08-21T02:00:00;15.30;99.90
25716;DHT22;13573;50.936;4.328;2022-08-21T02:02:26;15.30;99.90
25716;DHT22;13573;50.936;4.328;2022-08-21T02:04:53;15.20;99.90
25716;DHT22;13573;50.936;4.328;2022-08-21T02:07:20;15.50;99.90
25716;DHT22;13573;50.936;4.328;2022-08-21T02:09:47;16.50;99.90
25716;DHT22;13573;50.936;4.328;2022-08-21T02:12:13;15.40;99.90
25716;DHT22;13573;50.936;4.328;2022-08-21T02:14:41;15.20;99.90
25716;DHT22;13573;50.936;4.328;2022-08-21T02:17:07;15.40;99.90
25716;DHT22;13573;50.936;4.328;2022-08-21T02:19:34;15.60;99.90
25716;DHT22;13573;50.936;4.328;2022-08-21T02:24:27;14.90;99.90
25716;DHT22;13573;50.936;4.328;2022-08-21T02:26:56;15.50;99.90
25716;DHT22;13573;50.936;4.328;2022-08-21T02:29:22;16.20;99.90
25716;DHT22;13573;50.936;4.328;2022-08-21T02:31:49;15.30;99.90
25716;DHT22;13573;50.936;4.328;2022-08-21T02:34:15;14.90;99.90
25716;DHT22;13573;50.936;4.328;2022-08-21T02:36:43;15.40;99.90
25716;DHT22;13573;50.936;4.328;2022-08-21T02:39:11;15.40;99.90
25716;DHT22;13573;50.936;4.328;2022-08-21T02:41:38;15.40;99.90
25716;DHT22;13573;50.936;4.328;2022-08-21T02:44:04;15.20;99.90
25716;DHT22;13573;50.936;4.328;2022-08-21T02:46:31;15.10;99.90
25716;DHT22;13573;50.936;4.328;2022-08-21T02:51:30;15.00;99.90
25716;DHT22;13573;50.936;4.328;2022-08-21T02:53:56;15.20;99.90
25716;DHT22;13573;50.936;4.328;2022-08-21T02:56:23;15.30;99.90
25716;DHT22;13573;50.936;4.328;2022-08-21T02:58:51;14.80;99.90
25716;DHT22;13573;50.936;4.328;2022-08-21T03:01:19;15.70;99.90
25716;DHT22;13573;50.936;4.328;2022-08-21T03:03:47;15.30;99.90
25716;DHT22;13573;50.936;4.328;2022-08-21T03:06:18;15.30;99.90
25716;DHT22;13573;50.936;4.328;2022-08-21T03:08:45;15.30;99.90
25716;DHT22;13573;50.936;4.328;2022-08-21T03:11:13;15.10;99.90
25716;DHT22;13573;50.936;4.328;2022-08-21T03:13:40;15.20;99.90
25716;DHT22;13573;50.936;4.328;2022-08-21T03:16:07;15.10;99.90
25716;DHT22;13573;50.936;4.328;2022-08-21T03:18:34;14.90;99.90
25716;DHT22;13573;50.936;4.328;2022-08-21T03:21:01;15.10;99.90
25716;DHT22;13573;50.936;4.328;2022-08-21T03:23:28;14.70;99.90
25716;DHT22;13573;50.936;4.328;2022-08-21T03:25:56;14.50;99.90
25716;DHT22;13573;50.936;4.328;2022-08-21T03:28:23;14.70;99.90
25716;DHT22;13573;50.936;4.328;2022-08-21T03:30:51;15.10;99.90
25716;DHT22;13573;50.936;4.328;2022-08-21T03:33:19;14.00;99.90
25716;DHT22;13573;50.936;4.328;2022-08-21T03:35:52;15.00;99.90
25716;DHT22;13573;50.936;4.328;2022-08-21T03:38:16;14.80;99.90
25716;DHT22;13573;50.936;4.328;2022-08-21T03:40:43;15.40;99.90
25716;DHT22;13573;50.936;4.328;2022-08-21T03:43:11;15.90;99.90
25716;DHT22;13573;50.936;4.328;2022-08-21T03:45:38;14.90;99.90
25716;DHT22;13573;50.936;4.328;2022-08-21T03:48:06;14.70;99.90
25716;DHT22;13573;50.936;4.328;2022-08-21T03:50:36;14.80;99.90
25716;DHT22;13573;50.936;4.328;2022-08-21T03:53:03;14.80;99.90
25716;DHT22;13573;50.936;4.328;2022-08-21T03:55:30;15.30;99.90
25716;DHT22;13573;50.936;4.328;2022-08-21T03:57:57;14.80;99.90
25716;DHT22;13573;50.936;4.328;2022-08-21T04:00:24;14.50;99.90
25716;DHT22;13573;50.936;4.328;2022-08-21T04:02:51;14.50;99.90
25716;DHT22;13573;50.936;4.328;2022-08-21T04:05:19;14.70;99.90
25716;DHT22;13573;50.936;4.328;2022-08-21T04:07:56;14.90;99.90
25716;DHT22;13573;50.936;4.328;2022-08-21T04:10:25;14.10;99.90
25716;DHT22;13573;50.936;4.328;2022-08-21T04:12:53;14.80;99.90
25716;DHT22;13573;50.936;4.328;2022-08-21T04:15:21;14.60;99.90
25716;DHT22;13573;50.936;4.328;2022-08-21T04:17:49;15.60;99.90
25716;DHT22;13573;50.936;4.328;2022-08-21T04:20:18;14.80;99.90
25716;DHT22;13573;50.936;4.328;2022-08-21T04:22:45;14.80;99.90
25716;DHT22;13573;50.936;4.328;2022-08-21T04:25:13;14.50;99.90
25716;DHT22;13573;50.936;4.328;2022-08-21T04:27:41;14.50;99.90
25716;DHT22;13573;50.936;4.328;2022-08-21T04:30:09;15.10;99.90
25716;DHT22;13573;50.936;4.328;2022-08-21T04:32:37;14.50;99.90
25716;DHT22;13573;50.936;4.328;2022-08-21T04:35:07;14.60;99.90
25716;DHT22;13573;50.936;4.328;2022-08-21T04:37:35;14.60;99.90
25716;DHT22;13573;50.936;4.328;2022-08-21T04:40:04;14.30;99.90
25716;DHT22;13573;50.936;4.328;2022-08-21T04:42:31;14.30;99.90
25716;DHT22;13573;50.936;4.328;2022-08-21T04:44:58;14.10;99.90
25716;DHT22;13573;50.936;4.328;2022-08-21T04:47:25;13.60;99.90
25716;DHT22;13573;50.936;4.328;2022-08-21T04:49:52;14.80;99.90
25716;DHT22;13573;50.936;4.328;2022-08-21T04:52:21;14.70;99.90
25716;DHT22;13573;50.936;4.328;2022-08-21T04:54:50;14.70;99.90
25716;DHT22;13573;50.936;4.328;2022-08-21T04:57:18;13.60;99.90
25716;DHT22;13573;50.936;4.328;2022-08-21T04:59:48;14.20;99.90
25716;DHT22;13573;50.936;4.328;2022-08-21T05:02:15;14.60;99.90
25716;DHT22;13573;50.936;4.328;2022-08-21T05:04:47;14.80;99.90
25716;DHT22;13573;50.936;4.328;2022-08-21T05:07:17;13.30;99.90
25716;DHT22;13573;50.936;4.328;2022-08-21T05:09:45;14.90;99.90
25716;DHT22;13573;50.936;4.328;2022-08-21T05:12:12;14.90;99.90
25716;DHT22;13573;50.936;4.328;2022-08-21T05:14:39;15.00;99.90
25716;DHT22;13573;50.936;4.328;2022-08-21T05:17:05;15.20;99.90
25716;DHT22;13573;50.936;4.328;2022-08-21T05:19:32;14.80;99.90
25716;DHT22;13573;50.936;4.328;2022-08-21T05:21:58;15.00;99.90
25716;DHT22;13573;50.936;4.328;2022-08-21T05:24:27;14.90;99.90
25716;DHT22;13573;50.936;4.328;2022-08-21T05:26:54;15.20;99.90
25716;DHT22;13573;50.936;4.328;2022-08-21T05:29:20;15.60;99.90
25716;DHT22;13573;50.936;4.328;2022-08-21T05:31:48;15.10;99.90
25716;DHT22;13573;50.936;4.328;2022-08-21T05:34:18;15.90;99.90
25716;DHT22;13573;50.936;4.328;2022-08-21T05:36:45;16.50;99.90
25716;DHT22;13573;50.936;4.328;2022-08-21T05:39:12;17.00;99.90
25716;DHT22;13573;50.936;4.328;2022-08-21T05:41:40;17.10;99.90
25716;DHT22;13573;50.936;4.328;2022-08-21T05:46:34;17.70;99.90
25716;DHT22;13573;50.936;4.328;2022-08-21T05:49:01;17.80;99.90
25716;DHT22;13573;50.936;4.328;2022-08-21T05:51:27;18.00;99.90
25716;DHT22;13573;50.936;4.328;2022-08-21T05:53:54;18.00;99.90
25716;DHT22;13573;50.936;4.328;2022-08-21T05:56:20;18.40;99.90
25716;DHT22;13573;50.936;4.328;2022-08-21T05:58:47;18.40;99.90
25716;DHT22;13573;50.936;4.328;2022-08-21T06:01:14;18.80;99.90
25716;DHT22;13573;50.936;4.328;2022-08-21T06:03:41;19.20;99.90
25716;DHT22;13573;50.936;4.328;2022-08-21T06:06:09;19.80;99.90
25716;DHT22;13573;50.936;4.328;2022-08-21T06:08:36;19.90;99.90
25716;DHT22;13573;50.936;4.328;2022-08-21T06:11:04;18.90;99.90
25716;DHT22;13573;50.936;4.328;2022-08-21T06:13:32;20.10;99.90
25716;DHT22;13573;50.936;4.328;2022-08-21T06:16:05;20.80;99.90
25716;DHT22;13573;50.936;4.328;2022-08-21T06:20:59;20.70;99.90
25716;DHT22;13573;50.936;4.328;2022-08-21T06:23:26;20.70;99.90
25716;DHT22;13573;50.936;4.328;2022-08-21T06:25:52;20.70;99.90
25716;DHT22;13573;50.936;4.328;2022-08-21T06:28:19;21.30;99.90
25716;DHT22;13573;50.936;4.328;2022-08-21T06:30:46;21.00;99.90
25716;DHT22;13573;50.936;4.328;2022-08-21T06:33:13;21.30;99.90
25716;DHT22;13573;50.936;4.328;2022-08-21T06:35:40;21.30;99.90
25716;DHT22;13573;50.936;4.328;2022-08-21T06:38:07;21.10;99.90
25716;DHT22;13573;50.936;4.328;2022-08-21T06:40:34;21.10;99.90
25716;DHT22;13573;50.936;4.328;2022-08-21T06:43:10;21.40;99.90
25716;DHT22;13573;50.936;4.328;2022-08-21T06:45:38;21.80;99.90
25716;DHT22;13573;50.936;4.328;2022-08-21T06:48:06;21.30;99.90
25716;DHT22;13573;50.936;4.328;2022-08-21T06:50:34;21.90;99.90
25716;DHT22;13573;50.936;4.328;2022-08-21T06:53:04;21.40;99.90
25716;DHT22;13573;50.936;4.328;2022-08-21T06:55:32;22.80;99.90
25716;DHT22;13573;50.936;4.328;2022-08-21T06:57:59;22.10;99.90
25716;DHT22;13573;50.936;4.328;2022-08-21T07:00:26;21.60;99.90
25716;DHT22;13573;50.936;4.328;2022-08-21T07:02:53;22.10;99.90
25716;DHT22;13573;50.936;4.328;2022-08-21T07:05:20;22.10;99.90
25716;DHT22;13573;50.936;4.328;2022-08-21T07:07:47;22.60;99.90
25716;DHT22;13573;50.936;4.328;2022-08-21T07:10:15;22.70;99.90
25716;DHT22;13573;50.936;4.328;2022-08-21T07:12:42;23.20;99.90
25716;DHT22;13573;50.936;4.328;2022-08-21T07:15:09;23.10;99.90
25716;DHT22;13573;50.936;4.328;2022-08-21T07:17:36;23.70;99.90
25716;DHT22;13573;50.936;4.328;2022-08-21T07:20:05;24.00;99.90
25716;DHT22;13573;50.936;4.328;2022-08-21T07:22:33;23.90;99.90
25716;DHT22;13573;50.936;4.328;2022-08-21T07:25:02;23.40;99.90
25716;DHT22;13573;50.936;4.328;2022-08-21T07:27:29;23.70;99.90
25716;DHT22;13573;50.936;4.328;2022-08-21T07:29:57;23.40;99.90
25716;DHT22;13573;50.936;4.328;2022-08-21T07:32:24;23.70;99.90
25716;DHT22;13573;50.936;4.328;2022-08-21T07:34:51;24.70;99.90
25716;DHT22;13573;50.936;4.328;2022-08-21T07:37:18;24.60;99.90
25716;DHT22;13573;50.936;4.328;2022-08-21T07:39:46;24.00;99.90
25716;DHT22;13573;50.936;4.328;2022-08-21T07:42:15;24.10;99.90
25716;DHT22;13573;50.936;4.328;2022-08-21T07:44:43;24.20;99.90
25716;DHT22;13573;50.936;4.328;2022-08-21T07:47:09;25.20;99.90
25716;DHT22;13573;50.936;4.328;2022-08-21T07:49:37;25.70;99.90
25716;DHT22;13573;50.936;4.328;2022-08-21T07:52:04;25.20;99.90
25716;DHT22;13573;50.936;4.328;2022-08-21T07:54:31;25.30;99.90
25716;DHT22;13573;50.936;4.328;2022-08-21T07:56:57;25.40;99.90
25716;DHT22;13573;50.936;4.328;2022-08-21T07:59:24;25.60;99.90
25716;DHT22;13573;50.936;4.328;2022-08-21T08:01:51;25.40;99.90
25716;DHT22;13573;50.936;4.328;2022-08-21T08:04:17;25.70;99.90
25716;DHT22;13573;50.936;4.328;2022-08-21T08:06:44;25.90;99.90
25716;DHT22;13573;50.936;4.328;2022-08-21T08:09:11;25.90;99.90
25716;DHT22;13573;50.936;4.328;2022-08-21T08:11:39;25.70;99.90
25716;DHT22;13573;50.936;4.328;2022-08-21T08:14:09;25.10;99.90
25716;DHT22;13573;50.936;4.328;2022-08-21T08:16:36;24.40;99.90
25716;DHT22;13573;50.936;4.328;2022-08-21T08:19:03;24.70;99.90
25716;DHT22;13573;50.936;4.328;2022-08-21T08:21:29;24.90;99.90
25716;DHT22;13573;50.936;4.328;2022-08-21T08:23:58;25.00;99.90
25716;DHT22;13573;50.936;4.328;2022-08-21T08:26:24;24.80;99.90
25716;DHT22;13573;50.936;4.328;2022-08-21T08:28:51;25.70;99.90
25716;DHT22;13573;50.936;4.328;2022-08-21T08:31:18;26.00;99.90
25716;DHT22;13573;50.936;4.328;2022-08-21T08:33:44;25.40;99.90
25716;DHT22;13573;50.936;4.328;2022-08-21T08:36:15;25.90;99.90
25716;DHT22;13573;50.936;4.328;2022-08-21T08:38:43;26.80;99.90
25716;DHT22;13573;50.936;4.328;2022-08-21T08:41:15;26.80;99.90
25716;DHT22;13573;50.936;4.328;2022-08-21T08:43:48;27.00;99.90
25716;DHT22;13573;50.936;4.328;2022-08-21T08:46:15;26.60;99.90
25716;DHT22;13573;50.936;4.328;2022-08-21T08:48:47;26.40;99.90
25716;DHT22;13573;50.936;4.328;2022-08-21T08:51:38;26.00;99.90
25716;DHT22;13573;50.936;4.328;2022-08-21T08:54:03;26.30;99.90
25716;DHT22;13573;50.936;4.328;2022-08-21T08:56:32;27.10;99.90
25716;DHT22;13573;50.936;4.328;2022-08-21T08:59:13;27.30;99.90
25716;DHT22;13573;50.936;4.328;2022-08-21T09:01:41;26.90;99.90
25716;DHT22;13573;50.936;4.328;2022-08-21T09:04:10;27.20;99.90
25716;DHT22;13573;50.936;4.328;2022-08-21T09:06:51;27.10;99.90
25716;DHT22;13573;50.936;4.328;2022-08-21T09:09:22;27.70;99.90
25716;DHT22;13573;50.936;4.328;2022-08-21T09:11:54;27.90;99.90
25716;DHT22;13573;50.936;4.328;2022-08-21T09:17:36;27.90;99.90
25716;DHT22;13573;50.936;4.328;2022-08-21T09:20:11;28.20;99.90
25716;DHT22;13573;50.936;4.328;2022-08-21T09:23:48;28.70;99.90
25716;DHT22;13573;50.936;4.328;2022-08-21T09:25:30;29.30;99.90
25716;DHT22;13573;50.936;4.328;2022-08-21T09:30:28;29.90;99.90
25716;DHT22;13573;50.936;4.328;2022-08-21T09:32:55;30.00;99.90
25716;DHT22;13573;50.936;4.328;2022-08-21T09:35:23;30.50;99.20
25716;DHT22;13573;50.936;4.328;2022-08-21T09:37:57;30.30;99.40
25716;DHT22;13573;50.936;4.328;2022-08-21T09:40:43;29.90;99.40
25716;DHT22;13573;50.936;4.328;2022-08-21T09:43:21;29.80;99.30
25716;DHT22;13573;50.936;4.328;2022-08-21T09:48:25;28.60;99.90
25716;DHT22;13573;50.936;4.328;2022-08-21T09:53:22;27.40;99.90
25716;DHT22;13573;50.936;4.328;2022-08-21T09:55:55;27.70;99.90
25716;DHT22;13573;50.936;4.328;2022-08-21T09:58:32;26.10;99.90
25716;DHT22;13573;50.936;4.328;2022-08-21T10:01:02;26.30;99.90
25716;DHT22;13573;50.936;4.328;2022-08-21T10:03:30;26.00;99.90
25716;DHT22;13573;50.936;4.328;2022-08-21T10:05:59;26.30;99.90
25716;DHT22;13573;50.936;4.328;2022-08-21T10:08:28;26.70;99.90
25716;DHT22;13573;50.936;4.328;2022-08-21T10:11:02;28.30;99.90
25716;DHT22;13573;50.936;4.328;2022-08-21T10:13:37;28.70;99.90
25716;DHT22;13573;50.936;4.328;2022-08-21T10:16:14;28.40;99.90
25716;DHT22;13573;50.936;4.328;2022-08-21T10:18:43;28.20;99.90
25716;DHT22;13573;50.936;4.328;2022-08-21T10:21:28;28.50;99.90
25716;DHT22;13573;50.936;4.328;2022-08-21T10:24:06;29.10;99.90
25716;DHT22;13573;50.936;4.328;2022-08-21T10:26:43;29.90;99.90
25716;DHT22;13573;50.936;4.328;2022-08-21T10:29:20;30.20;99.90
25716;DHT22;13573;50.936;4.328;2022-08-21T10:37:47;29.30;99.90
25716;DHT22;13573;50.936;4.328;2022-08-21T10:40:13;29.90;99.00
25716;DHT22;13573;50.936;4.328;2022-08-21T10:43:03;29.90;99.10
25716;DHT22;13573;50.936;4.328;2022-08-21T10:45:40;30.20;98.70
25716;DHT22;13573;50.936;4.328;2022-08-21T10:48:07;30.50;98.50
25716;DHT22;13573;50.936;4.328;2022-08-21T10:50:44;30.00;99.90
25716;DHT22;13573;50.936;4.328;2022-08-21T10:53:52;30.20;98.10
25716;DHT22;13573;50.936;4.328;2022-08-21T10:56:12;29.10;99.90
25716;DHT22;13573;50.936;4.328;2022-08-21T10:58:39;29.40;98.90
25716;DHT22;13573;50.936;4.328;2022-08-21T11:01:18;30.20;99.90
25716;DHT22;13573;50.936;4.328;2022-08-21T11:03:50;29.70;99.90
25716;DHT22;13573;50.936;4.328;2022-08-21T11:06:25;29.50;99.30
25716;DHT22;13573;50.936;4.328;2022-08-21T11:09:12;29.60;99.50
25716;DHT22;13573;50.936;4.328;2022-08-21T11:12:17;30.10;98.80
25716;DHT22;13573;50.936;4.328;2022-08-21T11:14:40;29.90;99.90
25716;DHT22;13573;50.936;4.328;2022-08-21T11:17:10;30.10;98.70
25716;DHT22;13573;50.936;4.328;2022-08-21T11:19:45;30.00;97.60
25716;DHT22;13573;50.936;4.328;2022-08-21T11:22:37;29.70;99.90
25716;DHT22;13573;50.936;4.328;2022-08-21T11:25:08;30.00;98.30
25716;DHT22;13573;50.936;4.328;2022-08-21T11:27:40;30.10;97.80
25716;DHT22;13573;50.936;4.328;2022-08-21T11:30:08;30.60;99.80
25716;DHT22;13573;50.936;4.328;2022-08-21T11:32:57;30.70;96.70
25716;DHT22;13573;50.936;4.328;2022-08-21T11:35:34;30.90;97.10
25716;DHT22;13573;50.936;4.328;2022-08-21T11:38:10;31.40;96.40
25716;DHT22;13573;50.936;4.328;2022-08-21T11:41:54;32.20;95.40
25716;DHT22;13573;50.936;4.328;2022-08-21T11:43:35;32.30;97.20
25716;DHT22;13573;50.936;4.328;2022-08-21T11:46:16;32.40;96.80
25716;DHT22;13573;50.936;4.328;2022-08-21T11:48:59;32.40;94.80
25716;DHT22;13573;50.936;4.328;2022-08-21T11:51:32;33.20;93.70
25716;DHT22;13573;50.936;4.328;2022-08-21T11:56:52;33.00;93.60
25716;DHT22;13573;50.936;4.328;2022-08-21T11:59:23;31.40;96.50
25716;DHT22;13573;50.936;4.328;2022-08-21T12:01:51;32.30;97.00
25716;DHT22;13573;50.936;4.328;2022-08-21T12:04:26;31.90;95.80
25716;DHT22;13573;50.936;4.328;2022-08-21T12:06:55;32.10;94.10
25716;DHT22;13573;50.936;4.328;2022-08-21T12:09:32;33.50;93.60
25716;DHT22;13573;50.936;4.328;2022-08-21T12:12:06;35.10;91.30
25716;DHT22;13573;50.936;4.328;2022-08-21T12:14:50;33.90;91.00
25716;DHT22;13573;50.936;4.328;2022-08-21T12:17:21;31.90;94.40
25716;DHT22;13573;50.936;4.328;2022-08-21T12:19:58;30.00;94.40
25716;DHT22;13573;50.936;4.328;2022-08-21T12:25:05;30.90;93.30
25716;DHT22;13573;50.936;4.328;2022-08-21T12:27:50;31.20;93.30
25716;DHT22;13573;50.936;4.328;2022-08-21T12:30:37;32.20;95.00
25716;DHT22;13573;50.936;4.328;2022-08-21T12:33:17;31.40;95.40
25716;DHT22;13573;50.936;4.328;2022-08-21T12:35:39;30.40;95.20
25716;DHT22;13573;50.936;4.328;2022-08-21T12:38:23;30.60;93.30
25716;DHT22;13573;50.936;4.328;2022-08-21T12:40:56;30.60;96.10
25716;DHT22;13573;50.936;4.328;2022-08-21T12:43:29;31.00;93.40
25716;DHT22;13573;50.936;4.328;2022-08-21T12:45:56;30.50;96.50
25716;DHT22;13573;50.936;4.328;2022-08-21T12:48:58;30.30;97.10
25716;DHT22;13573;50.936;4.328;2022-08-21T12:51:30;30.20;94.00
25716;DHT22;13573;50.936;4.328;2022-08-21T12:53:59;30.00;98.20
25716;DHT22;13573;50.936;4.328;2022-08-21T12:56:30;28.70;98.20
25716;DHT22;13573;50.936;4.328;2022-08-21T12:59:01;29.00;95.10
25716;DHT22;13573;50.936;4.328;2022-08-21T13:01:34;28.10;98.80
25716;DHT22;13573;50.936;4.328;2022-08-21T13:04:07;27.80;95.60
25716;DHT22;13573;50.936;4.328;2022-08-21T13:09:10;27.90;95.90
25716;DHT22;13573;50.936;4.328;2022-08-21T13:11:39;27.90;95.90
25716;DHT22;13573;50.936;4.328;2022-08-21T13:14:23;28.50;99.20
25716;DHT22;13573;50.936;4.328;2022-08-21T13:16:45;28.50;95.90
25716;DHT22;13573;50.936;4.328;2022-08-21T13:19:16;29.00;95.00
25716;DHT22;13573;50.936;4.328;2022-08-21T13:21:44;29.20;97.70
25716;DHT22;13573;50.936;4.328;2022-08-21T13:26:43;29.20;94.50
25716;DHT22;13573;50.936;4.328;2022-08-21T13:29:17;29.10;94.80
25716;DHT22;13573;50.936;4.328;2022-08-21T13:31:47;29.30;97.20
25716;DHT22;13573;50.936;4.328;2022-08-21T13:34:16;30.30;97.10
25716;DHT22;13573;50.936;4.328;2022-08-21T13:36:44;31.60;95.90
25716;DHT22;13573;50.936;4.328;2022-08-21T13:39:16;31.30;93.60
25716;DHT22;13573;50.936;4.328;2022-08-21T13:41:46;31.80;95.30
25716;DHT22;13573;50.936;4.328;2022-08-21T13:44:20;32.50;94.40
25716;DHT22;13573;50.936;4.328;2022-08-21T13:46:49;31.90;91.70
25716;DHT22;13573;50.936;4.328;2022-08-21T13:49:28;31.60;91.30
25716;DHT22;13573;50.936;4.328;2022-08-21T13:51:48;31.60;91.70
25716;DHT22;13573;50.936;4.328;2022-08-21T13:54:23;31.60;91.60
25716;DHT22;13573;50.936;4.328;2022-08-21T13:56:52;32.00;91.40
25716;DHT22;13573;50.936;4.328;2022-08-21T13:59:26;32.50;91.00
25716;DHT22;13573;50.936;4.328;2022-08-21T14:01:58;32.70;91.50
25716;DHT22;13573;50.936;4.328;2022-08-21T14:04:31;33.60;90.10
25716;DHT22;13573;50.936;4.328;2022-08-21T14:06:58;33.70;88.60
25716;DHT22;13573;50.936;4.328;2022-08-21T14:09:32;33.40;89.40
25716;DHT22;13573;50.936;4.328;2022-08-21T14:12:03;33.60;88.00
25716;DHT22;13573;50.936;4.328;2022-08-21T14:14:33;32.60;92.80
25716;DHT22;13573;50.936;4.328;2022-08-21T14:17:04;32.20;90.30
25716;DHT22;13573;50.936;4.328;2022-08-21T14:19:40;30.70;91.40
25716;DHT22;13573;50.936;4.328;2022-08-21T14:24:46;30.60;91.90
25716;DHT22;13573;50.936;4.328;2022-08-21T14:27:16;30.50;92.00
25716;DHT22;13573;50.936;4.328;2022-08-21T14:29:43;30.10;94.30
25716;DHT22;13573;50.936;4.328;2022-08-21T14:32:18;30.80;94.10
25716;DHT22;13573;50.936;4.328;2022-08-21T14:34:43;30.50;94.00
25716;DHT22;13573;50.936;4.328;2022-08-21T14:37:10;30.70;94.40
25716;DHT22;13573;50.936;4.328;2022-08-21T14:39:37;31.60;94.50
25716;DHT22;13573;50.936;4.328;2022-08-21T14:42:04;31.20;91.60
25716;DHT22;13573;50.936;4.328;2022-08-21T14:44:31;31.20;94.30
25716;DHT22;13573;50.936;4.328;2022-08-21T14:46:59;30.20;94.40
25716;DHT22;13573;50.936;4.328;2022-08-21T14:49:28;29.10;95.20
25716;DHT22;13573;50.936;4.328;2022-08-21T14:51:57;29.20;95.30
25716;DHT22;13573;50.936;4.328;2022-08-21T14:54:26;28.70;94.50
25716;DHT22;13573;50.936;4.328;2022-08-21T14:56:54;29.10;95.90
25716;DHT22;13573;50.936;4.328;2022-08-21T14:59:21;29.20;92.60
25716;DHT22;13573;50.936;4.328;2022-08-21T15:01:49;28.50;96.10
25716;DHT22;13573;50.936;4.328;2022-08-21T15:04:16;28.30;96.10
25716;DHT22;13573;50.936;4.328;2022-08-21T15:06:42;28.30;96.50
25716;DHT22;13573;50.936;4.328;2022-08-21T15:09:10;28.40;96.80
25716;DHT22;13573;50.936;4.328;2022-08-21T15:11:37;28.10;93.60
25716;DHT22;13573;50.936;4.328;2022-08-21T15:14:07;27.90;93.80
25716;DHT22;13573;50.936;4.328;2022-08-21T15:16:35;27.50;97.60
25716;DHT22;13573;50.936;4.328;2022-08-21T15:19:02;27.10;97.70
25716;DHT22;13573;50.936;4.328;2022-08-21T15:21:30;27.40;97.20
25716;DHT22;13573;50.936;4.328;2022-08-21T15:26:24;28.30;94.20
25716;DHT22;13573;50.936;4.328;2022-08-21T15:28:51;28.10;93.90
25716;DHT22;13573;50.936;4.328;2022-08-21T15:31:18;28.00;94.40
25716;DHT22;13573;50.936;4.328;2022-08-21T15:33:45;27.30;97.50
25716;DHT22;13573;50.936;4.328;2022-08-21T15:36:11;27.60;94.80
25716;DHT22;13573;50.936;4.328;2022-08-21T15:38:38;27.40;94.60
25716;DHT22;13573;50.936;4.328;2022-08-21T15:41:05;27.50;94.90
25716;DHT22;13573;50.936;4.328;2022-08-21T15:43:40;28.10;94.40
25716;DHT22;13573;50.936;4.328;2022-08-21T15:46:06;28.00;94.40
25716;DHT22;13573;50.936;4.328;2022-08-21T15:48:34;27.10;97.60
25716;DHT22;13573;50.936;4.328;2022-08-21T15:51:03;27.50;94.70
25716;DHT22;13573;50.936;4.328;2022-08-21T15:53:29;27.50;95.00
25716;DHT22;13573;50.936;4.328;2022-08-21T15:56:00;27.00;97.90
25716;DHT22;13573;50.936;4.328;2022-08-21T15:58:27;27.40;95.40
25716;DHT22;13573;50.936;4.328;2022-08-21T16:00:53;27.40;95.20
25716;DHT22;13573;50.936;4.328;2022-08-21T16:03:21;27.30;97.90
25716;DHT22;13573;50.936;4.328;2022-08-21T16:05:48;26.40;98.00
25716;DHT22;13573;50.936;4.328;2022-08-21T16:08:18;27.10;98.30
25716;DHT22;13573;50.936;4.328;2022-08-21T16:10:46;27.40;98.40
25716;DHT22;13573;50.936;4.328;2022-08-21T16:13:24;27.10;95.50
25716;DHT22;13573;50.936;4.328;2022-08-21T16:15:52;27.00;98.30
25716;DHT22;13573;50.936;4.328;2022-08-21T16:20:46;27.00;95.30
25716;DHT22;13573;50.936;4.328;2022-08-21T16:23:13;26.90;95.50
25716;DHT22;13573;50.936;4.328;2022-08-21T16:25:41;25.40;98.20
25716;DHT22;13573;50.936;4.328;2022-08-21T16:28:11;26.30;98.60
25716;DHT22;13573;50.936;4.328;2022-08-21T16:30:39;26.40;99.30
25716;DHT22;13573;50.936;4.328;2022-08-21T16:33:06;26.80;96.10